Terminal Aerodrome Forecast
Issued by NWS Missoula, MT

Home | Current Version | Previous Version | Text Only | Print | Product List | Glossary On
Versions: 1 2 3 4 5 6 7 8 9 10 11 12 13 14 15 16
000
FTUS45 KMSO 270537
TAFBTM
TAF
KBTM 270537Z 2706/2806 16005KT P6SM OVC090
     FM271400 VRB06KT P6SM VCSH BKN060
     FM271700 32011KT P6SM -SHRASN OVC040
     FM272200 31011G20KT P6SM VCSH BKN040 OVC060
     FM280200 30007KT P6SM VCSH BKN060=

USA.gov is the U.S. government's official web portal to all federal, state and local government web resources and services.